Onego, West Virginia
Current Conditions -  °F | °C
As of 8:55 AM on Thursday 30 Oct 2014 (Local Time) from KW99 Reporting Station
Overcast Overcast  
Wind Chill: 44°   Ceiling: 4800
Heat Index: 44°   Visibility: 10mi
Dew Point: 41°   Wind: 0mph
Humidity: 91%   Direction: NA
Pressure: 30.1"   Gusts: NA
Location:  38.85°N, 79.42°W
Report Text: KW99 301255Z AUTO 00000KT 10SM OVC048 07/05 A3010 RMK AO2 T00650052
Loading
Personal Weather Stations






























Interactive Weather Map
Tropical Storm Tracking
New forecast layout! Learn more

10-Day Weather Forecast

Advertisements
Track Severe Weather on mobile